.
WxDataArchive / Data Records for 2009-03-27
2009-03-26 March 2009 2009-03-28

Data Records for Friday, 27 March 2009

Time	Temp	Chill	HIndex	Humid	Dewpt	 Wind 	HiWind	WindDir	Rain 	Barom 
-----	----	-----	------	-----	-----	------	------	-------	-----	----- 
00:00	35.8	35.8	35.8	83	31.2	0	0	---	0.00	29.977 
00:05	35.6	35.6	35.6	83	31.0	0	0	---	0.00	29.976 
00:10	35.5	35.5	35.5	84	31.2	0	0	---	0.00	29.975 
00:15	35.3	35.3	35.3	84	31.0	0	0	---	0.00	29.976 
00:20	35.3	35.3	35.3	84	31.0	0	0	---	0.00	29.976 
00:25	35.2	35.2	35.2	84	30.9	0	0	---	0.00	29.977 
00:30	35.0	35.0	35.0	84	30.7	0	0	---	0.00	29.983 
00:35	34.9	34.9	34.9	85	30.9	0	0	---	0.00	29.985 
00:40	34.9	34.9	34.9	85	30.9	0	0	---	0.00	29.986 
00:45	34.9	34.9	34.9	85	30.9	0	0	---	0.00	29.985 
00:50	34.7	34.7	34.7	85	30.7	0	0	---	0.00	29.985 
00:55	34.6	34.6	34.6	85	30.6	0	0	---	0.00	29.985 
01:00	34.4	34.4	34.4	86	30.7	0	0	---	0.00	29.982 
01:05	34.4	34.4	34.4	86	30.7	0	0	---	0.00	29.977 
01:10	34.3	34.3	34.3	86	30.6	0	0	---	0.00	29.975 
01:15	34.1	34.1	34.1	86	30.4	0	0	---	0.00	29.975 
01:20	34.0	34.0	34.0	86	30.3	0	0	---	0.00	29.974 
01:25	33.8	33.8	33.8	87	30.3	0	0	---	0.00	29.973 
01:30	33.8	33.8	33.8	87	30.3	0	0	---	0.00	29.974 
01:35	33.7	33.7	33.7	87	30.3	0	0	---	0.00	29.977 
01:40	33.7	33.7	33.7	87	30.3	0	0	---	0.00	29.981 
01:45	33.7	33.7	33.7	87	30.3	0	0	---	0.00	29.981 
01:50	33.7	33.7	33.7	87	30.3	0	0	---	0.00	29.981 
01:55	33.5	33.5	33.5	88	30.3	0	0	---	0.00	29.983 
02:00	33.5	33.5	33.5	88	30.3	0	0	---	0.00	29.982 
02:05	33.7	33.7	33.7	88	30.5	0	0	---	0.00	29.982 
02:10	33.5	33.5	33.5	88	30.3	0	0	---	0.00	29.984 
02:15	33.5	33.5	33.5	88	30.3	0	0	---	0.00	29.984 
02:20	33.5	33.5	33.5	88	30.3	0	0	---	0.00	29.984 
02:25	33.4	33.4	33.4	88	30.2	0	0	---	0.00	29.985 
02:30	33.4	33.4	33.4	88	30.2	0	0	---	0.00	29.984 
02:35	33.2	33.2	33.2	88	30.0	0	1	292	0.00	29.984 
02:40	33.2	33.2	33.2	88	30.0	0	0	---	0.00	29.983 
02:45	33.1	33.1	33.1	88	29.9	0	0	---	0.00	29.982 
02:50	33.1	33.1	33.1	88	29.9	0	1	292	0.00	29.983 
02:55	33.1	33.1	33.1	88	29.9	0	1	292	0.00	29.980 
03:00	32.9	32.9	32.9	88	29.7	0	0	---	0.00	29.973 
03:05	32.9	32.9	32.9	88	29.7	0	0	---	0.00	29.972 
03:10	32.9	32.9	32.9	88	29.7	0	0	---	0.00	29.970 
03:15	32.8	32.8	32.8	89	29.9	0	0	---	0.00	29.969 
03:20	32.8	32.8	32.8	89	29.9	0	0	---	0.00	29.968 
03:25	32.8	32.8	32.8	89	29.9	0	0	---	0.00	29.968 
03:30	32.8	32.8	32.8	90	30.2	0	0	---	0.00	29.967 
03:35	32.8	32.8	32.8	90	30.2	0	0	---	0.00	29.967 
03:40	32.8	32.8	32.8	90	30.2	0	0	---	0.00	29.965 
03:45	32.7	32.7	32.7	90	30.1	0	0	---	0.00	29.963 
03:50	32.5	32.5	32.5	90	29.9	0	0	---	0.00	29.960 
03:55	32.4	32.4	32.4	90	29.8	0	0	---	0.00	29.959 
04:00	32.2	32.2	32.2	91	29.9	0	0	---	0.00	29.957 
04:05	32.2	32.2	32.2	91	29.9	0	0	---	0.00	29.959 
04:10	32.2	32.2	32.2	91	29.9	0	0	---	0.00	29.958 
04:15	32.2	32.2	32.2	91	29.9	0	0	---	0.00	29.961 
04:20	32.1	32.1	32.1	91	29.8	0	0	---	0.00	29.962 
04:25	31.9	31.9	31.9	91	29.6	0	0	---	0.00	29.963 
04:30	31.9	31.9	31.9	91	29.6	0	0	---	0.00	29.964 
04:35	31.8	31.8	31.8	91	29.5	0	0	---	0.00	29.964 
04:40	31.6	31.6	31.6	91	29.3	0	0	---	0.00	29.965 
04:45	31.8	31.8	31.8	92	29.7	0	0	---	0.00	29.967 
04:50	31.8	31.8	31.8	92	29.7	0	0	---	0.00	29.966 
04:55	31.9	31.9	31.9	92	29.8	0	0	---	0.00	29.966 
05:00	31.9	31.9	31.9	92	29.8	0	0	---	0.00	29.969 
05:05	31.8	31.8	31.8	92	29.7	0	1	292	0.00	29.974 
05:10	31.8	31.8	31.8	92	29.7	0	1	292	0.00	29.973 
05:15	31.8	31.8	31.8	92	29.7	0	1	292	0.00	29.972 
05:20	31.8	31.8	31.8	92	29.7	0	0	---	0.00	29.973 
05:25	31.6	31.6	31.6	92	29.5	0	2	292	0.00	29.981 
05:30	31.8	31.8	31.8	92	29.7	0	1	292	0.00	29.972 
05:35	31.8	31.8	31.8	92	29.7	0	0	---	0.00	29.973 
05:40	31.8	31.8	31.8	92	29.7	0	0	---	0.00	29.980 
05:45	31.8	31.8	31.8	92	29.7	0	0	---	0.00	29.982 
05:50	31.5	31.5	31.5	92	29.4	0	0	---	0.00	29.978 
05:55	31.5	31.5	31.5	92	29.4	0	0	---	0.00	29.976 
06:00	31.3	31.3	31.3	92	29.3	0	0	---	0.00	29.975 
06:05	31.2	31.2	31.2	92	29.2	0	0	---	0.00	29.981 
06:10	31.2	31.2	31.2	92	29.2	0	0	---	0.00	29.980 
06:15	31.2	31.2	31.2	92	29.2	0	0	---	0.00	29.979 
06:20	31.0	31.0	31.0	92	29.0	0	0	---	0.00	29.976 
06:25	31.0	31.0	31.0	92	29.0	0	0	---	0.00	29.980 
06:30	31.2	31.2	31.2	92	29.2	0	0	---	0.00	29.985 
06:35	31.3	31.3	31.3	92	29.3	0	0	---	0.00	29.986 
06:40	31.3	31.3	31.3	92	29.3	0	0	---	0.00	29.986 
06:45	31.3	31.3	31.3	92	29.3	0	0	---	0.00	29.987 
06:50	31.5	31.5	31.5	93	29.7	0	0	---	0.00	29.986 
06:55	31.6	31.6	31.6	93	29.8	0	0	---	0.00	29.979 
07:00	31.6	31.6	31.6	93	29.8	0	0	---	0.00	29.986 
07:05	31.8	31.8	31.8	93	30.0	0	0	---	0.00	29.995 
07:10	32.1	32.1	32.1	93	30.3	0	0	---	0.00	29.995 
07:15	32.4	32.4	32.4	93	30.6	0	0	---	0.00	29.997 
07:20	32.5	32.5	32.5	93	30.7	0	1	292	0.00	30.006 
07:25	32.8	32.8	32.8	93	31.0	0	1	292	0.00	30.009 
07:30	32.9	32.9	32.9	93	31.1	0	0	---	0.00	30.006 
07:35	33.2	33.2	33.2	93	31.4	0	0	---	0.00	30.000 
07:40	33.7	33.7	33.7	94	32.2	0	0	---	0.00	29.998 
07:45	34.4	34.4	34.4	94	32.9	0	0	---	0.00	29.999 
07:50	34.9	34.9	34.9	94	33.4	0	0	---	0.00	30.002 
07:55	35.5	35.5	35.5	93	33.7	0	0	---	0.00	30.002 
08:00	36.0	36.0	36.0	94	34.4	0	0	---	0.00	30.002 
08:05	36.6	36.6	36.6	94	35.0	0	0	---	0.00	30.005 
08:10	37.2	37.2	37.2	93	35.4	0	0	---	0.00	30.007 
08:15	37.9	37.9	37.9	93	36.1	0	0	---	0.00	29.999 
08:20	38.3	38.3	38.3	93	36.5	0	0	---	0.00	29.995 
08:25	38.9	38.9	38.9	92	36.8	0	0	---	0.00	29.993 
08:30	39.6	39.6	39.6	92	37.5	0	0	---	0.00	29.987 
08:35	40.2	40.2	40.2	90	37.5	0	1	292	0.00	29.983 
08:40	40.8	40.8	40.8	87	37.2	0	1	315	0.00	29.980 
08:45	41.6	41.6	41.6	86	37.7	0	0	---	0.00	29.974 
08:50	42.3	42.3	42.3	84	37.8	0	1	315	0.00	29.975 
08:55	43.1	43.1	43.1	83	38.3	0	1	315	0.00	29.974 
09:00	44.1	44.1	44.1	81	38.6	0	0	---	0.00	29.971 
09:05	44.9	44.9	44.9	77	38.1	0	2	315	0.00	29.972 
09:10	45.8	45.8	45.8	74	38.0	1	2	315	0.00	29.972 
09:15	46.8	46.8	46.8	73	38.6	0	1	315	0.00	29.971 
09:20	47.7	47.7	47.7	72	39.1	1	2	338	0.00	29.973 
09:25	48.8	48.8	48.8	70	39.5	0	2	338	0.00	29.976 
09:30	49.2	49.2	49.2	68	39.1	1	2	338	0.00	29.973 
09:35	49.6	49.6	49.6	68	39.5	1	2	338	0.00	29.976 
09:40	49.8	49.8	49.8	66	38.9	1	3	22	0.00	29.977 
09:45	50.1	50.1	50.1	66	39.2	1	2	22	0.00	29.979 
09:50	50.4	50.4	50.4	65	39.1	0	1	22	0.00	29.980 
09:55	50.5	50.5	50.5	65	39.2	1	2	22	0.00	29.980 
10:00	50.7	50.7	50.7	64	39.0	1	3	22	0.00	29.981 
10:05	50.8	50.8	50.8	66	39.9	1	2	22	0.00	29.983 
10:10	51.0	51.0	51.0	64	39.3	0	2	22	0.00	29.983 
10:15	51.3	51.3	51.3	63	39.1	0	1	22	0.00	29.982 
10:20	52.0	52.0	52.0	61	39.0	1	3	22	0.00	29.984 
10:25	52.6	52.6	52.6	62	40.0	1	3	22	0.00	29.982 
10:30	53.2	53.2	53.2	64	41.3	0	2	45	0.00	29.981 
10:35	53.6	53.6	53.6	61	40.5	1	4	45	0.00	29.977 
10:40	53.6	53.6	53.6	60	40.1	1	4	68	0.00	29.976 
10:45	53.3	53.3	53.3	62	40.6	1	3	68	0.00	29.976 
10:50	53.3	53.3	53.3	61	40.2	1	3	68	0.00	29.978 
10:55	53.3	53.3	53.3	60	39.8	1	3	68	0.00	29.980 
11:00	53.6	53.6	53.6	59	39.6	1	4	68	0.00	29.977 
11:05	53.9	53.9	53.9	59	39.9	1	3	68	0.00	29.977 
11:10	54.5	54.5	54.5	56	39.1	1	3	68	0.00	29.977 
11:15	55.0	55.0	55.0	56	39.6	1	2	68	0.00	29.971 
11:20	55.4	55.4	55.4	54	39.0	1	3	68	0.00	29.969 
11:25	55.6	55.6	55.6	53	38.7	0	2	68	0.00	29.970 
11:30	55.7	55.7	55.7	51	37.9	0	1	68	0.00	29.974 
11:35	56.3	56.3	56.3	50	37.9	1	3	90	0.00	29.978 
11:40	56.7	56.7	56.7	47	36.7	1	3	90	0.00	29.980 
11:45	57.0	57.0	57.0	51	39.1	0	2	90	0.00	29.980 
11:50	57.2	57.2	57.2	47	37.2	2	4	90	0.00	29.980 
11:55	57.0	57.0	57.0	49	38.0	1	3	112	0.00	29.979 
12:00	57.3	57.3	57.3	49	38.3	1	3	112	0.00	29.976 
12:05	57.6	57.6	57.6	47	37.5	2	9	90	0.00	29.972 
12:10	58.1	58.1	58.1	48	38.5	1	4	68	0.00	29.973 
12:15	58.0	58.0	58.0	46	37.3	1	3	90	0.00	29.972 
12:20	57.6	57.6	57.6	48	38.1	3	6	112	0.00	29.969 
12:25	57.3	57.3	57.3	47	37.2	2	5	112	0.00	29.968 
12:30	57.2	57.2	57.2	48	37.7	1	4	112	0.00	29.968 
12:35	57.0	57.0	57.0	46	36.4	2	4	112	0.00	29.968 
12:40	57.3	57.3	57.3	47	37.2	1	4	112	0.00	29.968 
12:45	57.6	57.6	57.6	44	35.8	1	4	112	0.00	29.963 
12:50	58.1	58.1	58.1	46	37.4	1	4	90	0.00	29.963 
12:55	58.4	58.4	58.4	44	36.6	1	3	90	0.00	29.960 
13:00	58.4	58.4	58.4	44	36.6	0	2	90	0.00	29.953 
13:05	58.6	58.6	58.6	43	36.2	1	5	90	0.00	29.954 
13:10	58.9	58.9	58.9	43	36.4	2	6	90	0.00	29.951 
13:15	59.3	59.3	59.3	43	36.8	2	5	248	0.00	29.950 
13:20	59.6	59.6	59.6	43	37.1	1	3	248	0.00	29.949 
13:25	59.3	59.3	59.3	42	36.2	1	4	112	0.00	29.949 
13:30	58.9	58.9	58.9	42	35.9	1	3	112	0.00	29.947 
13:35	58.6	58.6	58.6	42	35.6	0	2	135	0.00	29.946 
13:40	58.7	58.7	58.7	44	36.8	1	4	112	0.00	29.943 
13:45	58.7	58.7	58.7	42	35.7	1	2	112	0.00	29.942 
13:50	58.9	58.9	58.9	43	36.4	1	3	112	0.00	29.936 
13:55	59.0	59.0	59.0	41	35.3	2	5	248	0.00	29.935 
14:00	58.9	58.9	58.9	40	34.6	1	2	248	0.00	29.934 
14:05	59.0	59.0	59.0	42	35.9	1	3	248	0.00	29.932 
14:10	59.2	59.2	59.2	41	35.5	0	2	248	0.00	29.933 
14:15	58.9	58.9	58.9	40	34.6	0	2	248	0.00	29.927 
14:20	58.9	58.9	58.9	43	36.4	0	3	0	0.00	29.924 
14:25	58.9	58.9	58.9	41	35.2	1	5	90	0.00	29.920 
14:30	58.6	58.6	58.6	43	36.2	2	4	90	0.00	29.921 
14:35	58.7	58.7	58.7	41	35.1	0	3	90	0.00	29.924 
14:40	58.7	58.7	58.7	40	34.4	0	1	90	0.00	29.923 
14:45	58.6	58.6	58.6	42	35.6	0	1	90	0.00	29.921 
14:50	58.4	58.4	58.4	41	34.8	0	2	90	0.00	29.920 
14:55	58.4	58.4	58.4	41	34.8	1	2	90	0.00	29.921 
15:00	58.4	58.4	58.4	43	36.0	0	2	90	0.00	29.922 
15:05	58.7	58.7	58.7	42	35.7	0	2	90	0.00	29.921 
15:10	58.7	58.7	58.7	40	34.4	0	2	90	0.00	29.920 
15:15	58.7	58.7	58.7	40	34.4	1	4	90	0.00	29.920 
15:20	58.6	58.6	58.6	42	35.6	1	2	90	0.00	29.918 
15:25	58.6	58.6	58.6	40	34.4	1	2	90	0.00	29.916 
15:30	58.7	58.7	58.7	43	36.3	1	2	90	0.00	29.917 
15:35	58.9	58.9	58.9	43	36.4	1	3	90	0.00	29.917 
15:40	58.9	58.9	58.9	42	35.9	1	4	90	0.00	29.915 
15:45	58.7	58.7	58.7	40	34.4	1	4	90	0.00	29.912 
15:50	58.7	58.7	58.7	41	35.1	0	1	90	0.00	29.912 
15:55	58.9	58.9	58.9	44	37.0	0	3	90	0.00	29.908 
16:00	58.9	58.9	58.9	43	36.4	0	1	90	0.00	29.909 
16:05	59.0	59.0	59.0	42	35.9	0	2	90	0.00	29.907 
16:10	58.9	58.9	58.9	40	34.6	0	1	90	0.00	29.907 
16:15	58.9	58.9	58.9	43	36.4	0	2	90	0.00	29.908 
16:20	58.7	58.7	58.7	43	36.3	0	2	90	0.00	29.910 
16:25	58.7	58.7	58.7	40	34.4	0	2	90	0.00	29.910 
16:30	58.9	58.9	58.9	42	35.9	0	3	90	0.00	29.908 
16:35	59.2	59.2	59.2	42	36.1	0	2	90	0.00	29.905 
16:40	59.5	59.5	59.5	41	35.8	0	3	90	0.00	29.905 
16:45	59.8	59.8	59.8	41	36.1	0	1	90	0.00	29.904 
16:50	59.8	59.8	59.8	40	35.4	0	2	90	0.00	29.904 
16:55	59.5	59.5	59.5	40	35.2	0	2	90	0.00	29.904 
17:00	59.2	59.2	59.2	39	34.3	0	1	90	0.00	29.904 
17:05	59.0	59.0	59.0	40	34.7	0	2	90	0.00	29.902 
17:10	58.7	58.7	58.7	42	35.7	1	3	90	0.00	29.897 
17:15	58.6	58.6	58.6	39	33.7	0	1	90	0.00	29.902 
17:20	58.4	58.4	58.4	42	35.4	0	1	90	0.00	29.903 
17:25	58.4	58.4	58.4	42	35.4	0	0	---	0.00	29.906 
17:30	58.3	58.3	58.3	42	35.3	0	1	90	0.00	29.905 
17:35	58.3	58.3	58.3	42	35.3	0	3	90	0.00	29.904 
17:40	58.1	58.1	58.1	43	35.7	0	0	---	0.00	29.905 
17:45	58.0	58.0	58.0	42	35.0	0	3	90	0.00	29.906 
17:50	57.8	57.8	57.8	43	35.5	0	2	90	0.00	29.907 
17:55	57.6	57.6	57.6	42	34.7	0	2	90	0.00	29.907 
18:00	57.5	57.5	57.5	43	35.2	0	2	90	0.00	29.907 
18:05	57.3	57.3	57.3	43	35.0	0	2	90	0.00	29.906 
18:10	57.2	57.2	57.2	42	34.3	0	2	90	0.00	29.905 
18:15	57.2	57.2	57.2	43	34.9	0	2	90	0.00	29.906 
18:20	57.2	57.2	57.2	43	34.9	0	1	90	0.00	29.908 
18:25	56.9	56.9	56.9	45	35.8	0	0	---	0.00	29.910 
18:30	56.6	56.6	56.6	44	34.9	0	0	---	0.00	29.913 
18:35	56.3	56.3	56.3	44	34.7	0	0	---	0.00	29.914 
18:40	55.9	55.9	55.9	46	35.4	0	0	---	0.00	29.915 
18:45	55.3	55.3	55.3	46	34.9	0	0	---	0.00	29.916 
18:50	54.8	54.8	54.8	48	35.5	0	0	---	0.00	29.913 
18:55	54.2	54.2	54.2	49	35.5	0	0	---	0.00	29.913 
19:00	53.8	53.8	53.8	50	35.6	0	0	---	0.00	29.918 
19:05	53.2	53.2	53.2	50	35.0	0	0	---	0.00	29.916 
19:10	52.8	52.8	52.8	51	35.2	0	0	---	0.00	29.919 
19:15	52.3	52.3	52.3	52	35.2	0	0	---	0.00	29.922 
19:20	51.9	51.9	51.9	53	35.3	0	0	---	0.00	29.922 
19:25	51.7	51.7	51.7	54	35.6	0	0	---	0.00	29.922 
19:30	51.6	51.6	51.6	55	36.0	0	0	---	0.00	29.922 
19:35	51.3	51.3	51.3	55	35.7	0	0	---	0.00	29.924 
19:40	51.1	51.1	51.1	56	36.0	0	0	---	0.00	29.925 
19:45	51.1	51.1	51.1	56	36.0	0	0	---	0.00	29.923 
19:50	51.0	51.0	51.0	56	35.9	0	0	---	0.00	29.922 
19:55	51.0	51.0	51.0	57	36.3	0	0	---	0.00	29.921 
20:00	50.8	50.8	50.8	57	36.1	0	0	---	0.00	29.920 
20:05	50.7	50.7	50.7	59	36.9	0	1	90	0.00	29.914 
20:10	50.7	50.7	50.7	58	36.5	0	1	90	0.00	29.914 
20:15	50.5	50.5	50.5	58	36.3	0	0	---	0.00	29.914 
20:20	50.4	50.4	50.4	58	36.2	0	0	---	0.00	29.915 
20:25	49.9	49.9	49.9	58	35.7	0	0	---	0.00	29.917 
20:30	49.5	49.5	49.5	58	35.3	0	0	---	0.00	29.918 
20:35	49.1	49.1	49.1	60	35.8	0	0	---	0.00	29.920 
20:40	48.6	48.6	48.6	61	35.8	0	0	---	0.00	29.920 
20:45	48.0	48.0	48.0	63	36.0	0	3	90	0.00	29.927 
20:50	48.5	48.5	48.5	62	36.1	1	3	292	0.00	29.927 
20:55	48.6	48.6	48.6	62	36.2	1	3	0	0.00	29.930 
21:00	48.8	48.8	48.8	61	36.0	0	3	0	0.00	29.931 
21:05	48.6	48.6	48.6	61	35.8	0	2	270	0.00	29.926 
21:10	48.5	48.5	48.5	61	35.7	1	4	22	0.00	29.927 
21:15	48.5	48.5	48.5	60	35.3	0	2	338	0.00	29.928 
21:20	48.2	48.2	48.2	60	35.0	0	2	338	0.00	29.930 
21:25	48.0	48.0	48.0	61	35.2	0	3	338	0.00	29.930 
21:30	47.7	47.7	47.7	60	34.5	1	4	270	0.00	29.932 
21:35	47.7	47.7	47.7	60	34.5	0	3	0	0.00	29.932 
21:40	47.4	47.4	47.4	61	34.6	0	3	0	0.00	29.930 
21:45	47.1	47.1	47.1	61	34.4	0	2	0	0.00	29.932 
21:50	46.8	46.8	46.8	62	34.5	0	3	338	0.00	29.933 
21:55	46.7	46.7	46.7	62	34.4	1	3	338	0.00	29.935 
22:00	46.4	46.4	46.4	62	34.1	0	2	338	0.00	29.936 
22:05	46.0	46.0	46.0	62	33.7	1	3	338	0.00	29.934 
22:10	45.7	45.7	45.7	63	33.8	0	2	338	0.00	29.932 
22:15	45.4	45.4	45.4	63	33.6	0	2	315	0.00	29.932 
22:20	45.2	45.2	45.2	63	33.4	1	3	338	0.00	29.930 
22:25	44.9	44.9	44.9	64	33.5	1	3	315	0.00	29.929 
22:30	44.5	44.5	44.5	64	33.1	1	2	315	0.00	29.926 
22:35	44.2	44.2	44.2	64	32.8	1	4	0	0.00	29.927 
22:40	43.9	43.9	43.9	65	32.9	0	2	0	0.00	29.925 
22:45	43.3	43.3	43.3	64	32.0	1	4	22	0.00	29.927 
22:50	42.8	42.8	42.8	64	31.5	1	6	45	0.00	29.929 
22:55	42.3	42.3	42.3	65	31.4	1	3	0	0.00	29.933 
23:00	42.1	42.1	42.1	65	31.2	2	7	338	0.00	29.935 
23:05	41.6	41.6	41.6	65	30.7	1	4	0	0.00	29.931 
23:10	41.3	41.3	41.3	65	30.4	1	5	0	0.00	29.939 
23:15	40.9	40.9	40.9	65	30.1	1	3	0	0.00	29.937 
23:20	40.6	40.6	40.6	66	30.1	1	3	0	0.00	29.940 
23:25	40.3	40.3	40.3	66	29.9	1	3	0	0.00	29.940 
23:30	40.1	40.1	40.1	67	30.0	1	3	45	0.00	29.935 
23:35	39.9	39.9	39.9	67	29.8	0	2	22	0.00	29.931 
23:40	39.6	39.6	39.6	67	29.6	0	3	22	0.00	29.932 
23:45	39.5	39.5	39.5	68	29.8	1	3	0	0.00	29.932 
23:50	39.3	39.3	39.3	68	29.6	1	4	315	0.00	29.932 
23:55	39.3	39.3	39.3	68	29.6	0	2	315	0.00	29.931 

CoCoRaHS
IN-AL-39
A2 Web Hosting
Creative Commons License
GoDaddy
search engine by freefind advanced

loaded 2018-11-18 11:04:28 • last modified 2010-11-18 10:43:29
Privacy PolicyDisclaimer
• wx.awcolley.com is powered by PmWiki v.2002016 •
• all content (unless otherwise noted) © 2018 A W Colley